createdAt,value
2022-07-30T00:01:34.202Z,10.73
2022-07-30T00:04:02.096Z,9.57
2022-07-30T00:06:28.580Z,11.95
2022-07-30T00:08:54.829Z,10.10
2022-07-30T00:11:27.247Z,11.73
2022-07-30T00:13:54.034Z,11.40
2022-07-30T00:16:20.406Z,12.13
2022-07-30T00:18:46.820Z,11.00
2022-07-30T00:21:20.213Z,19.42
2022-07-30T00:24:01.476Z,10.35
2022-07-30T00:26:28.509Z,10.82
2022-07-30T00:28:55.379Z,13.13
2022-07-30T00:31:21.652Z,11.93
2022-07-30T00:33:47.914Z,13.40
2022-07-30T00:36:14.271Z,14.88
2022-07-30T00:38:40.565Z,10.43
2022-07-30T00:41:06.836Z,19.65
2022-07-30T00:43:33.122Z,14.57
2022-07-30T00:45:59.429Z,14.57
2022-07-30T00:48:25.762Z,13.52
2022-07-30T00:50:52.047Z,18.55
2022-07-30T00:53:18.694Z,13.10
2022-07-30T00:55:44.995Z,12.20
2022-07-30T00:58:11.325Z,15.15
2022-07-30T01:00:37.638Z,12.02
2022-07-30T01:03:04.707Z,12.25
2022-07-30T01:05:31.129Z,17.17
2022-07-30T01:07:57.417Z,13.45
2022-07-30T01:10:23.717Z,18.95
2022-07-30T01:12:52.535Z,12.95
2022-07-30T01:15:19.496Z,12.07
2022-07-30T01:17:52.734Z,14.35
2022-07-30T01:20:23.131Z,14.73
2022-07-30T01:22:52.456Z,17.92
2022-07-30T01:25:21.787Z,12.32
2022-07-30T01:28:09.014Z,15.73
2022-07-30T01:30:38.383Z,12.52
2022-07-30T01:33:05.993Z,11.63
2022-07-30T01:35:32.969Z,13.15
2022-07-30T01:38:00.837Z,13.13
2022-07-30T01:40:27.905Z,11.43
2022-07-30T01:42:55.185Z,11.48
2022-07-30T01:45:25.007Z,16.38
2022-07-30T01:47:55.219Z,12.82
2022-07-30T01:50:22.045Z,11.93
2022-07-30T01:52:49.569Z,10.35
2022-07-30T01:55:17.762Z,16.15
2022-07-30T01:57:46.766Z,12.18
2022-07-30T02:00:13.463Z,18.92
2022-07-30T02:02:41.168Z,19.17
2022-07-30T02:05:08.337Z,15.15
2022-07-30T02:07:45.662Z,14.98
2022-07-30T02:10:14.172Z,13.98
2022-07-30T02:12:46.091Z,14.02
2022-07-30T02:15:25.051Z,13.15
2022-07-30T02:17:56.027Z,15.27
2022-07-30T02:20:28.335Z,15.00
2022-07-30T02:22:56.852Z,19.65
2022-07-30T02:25:23.520Z,15.35
2022-07-30T02:27:52.229Z,15.95
2022-07-30T02:30:18.940Z,16.77
2022-07-30T02:32:47.010Z,18.92
2022-07-30T02:35:18.815Z,15.48
2022-07-30T02:37:46.640Z,12.63
2022-07-30T02:40:15.044Z,13.68
2022-07-30T02:42:42.421Z,14.88
2022-07-30T02:45:09.032Z,23.15
2022-07-30T02:47:36.734Z,18.77
2022-07-30T02:50:05.221Z,13.07
2022-07-30T02:52:32.246Z,15.23
2022-07-30T02:54:59.316Z,13.13
2022-07-30T02:57:26.403Z,17.08
2022-07-30T02:59:54.101Z,19.40
2022-07-30T03:02:29.337Z,14.52
2022-07-30T03:04:57.378Z,14.73
2022-07-30T03:07:24.241Z,15.45
2022-07-30T03:09:52.734Z,17.88
2022-07-30T03:12:19.645Z,14.48
2022-07-30T03:14:46.013Z,17.67
2022-07-30T03:17:15.054Z,12.95
2022-07-30T03:19:41.757Z,13.10
2022-07-30T03:22:09.535Z,20.58
2022-07-30T03:24:37.809Z,16.10
2022-07-30T03:27:04.714Z,19.20
2022-07-30T03:29:31.274Z,16.92
2022-07-30T03:31:57.956Z,16.55
2022-07-30T03:34:26.848Z,15.02
2022-07-30T03:36:55.478Z,16.38
2022-07-30T03:39:22.465Z,15.48
2022-07-30T03:41:49.368Z,17.48
2022-07-30T03:44:15.827Z,20.92
2022-07-30T03:46:42.265Z,19.50
2022-07-30T03:49:09.068Z,19.40
2022-07-30T03:51:36.722Z,22.55
2022-07-30T03:54:03.919Z,19.25
2022-07-30T03:56:30.354Z,20.55
2022-07-30T03:58:56.675Z,22.23
2022-07-30T04:01:26.768Z,15.02
2022-07-30T04:03:53.267Z,20.50
2022-07-30T04:06:19.604Z,20.58
2022-07-30T04:08:45.859Z,19.95
2022-07-30T04:11:12.141Z,21.90
2022-07-30T04:13:38.378Z,18.75
2022-07-30T04:16:39.782Z,17.48
2022-07-30T04:19:09.432Z,25.80
2022-07-30T04:21:37.373Z,21.52
2022-07-30T04:24:05.747Z,17.17
2022-07-30T04:26:33.798Z,22.17
2022-07-30T04:29:00.422Z,21.17
2022-07-30T04:31:27.961Z,19.52
2022-07-30T04:33:54.295Z,19.67
2022-07-30T04:36:20.558Z,26.42
2022-07-30T04:38:46.812Z,22.45
2022-07-30T04:41:13.042Z,23.67
2022-07-30T04:43:39.341Z,22.58
2022-07-30T04:46:05.639Z,24.73
2022-07-30T04:48:31.935Z,25.58
2022-07-30T04:51:00.469Z,25.52
2022-07-30T04:53:28.452Z,26.52
2022-07-30T04:55:55.388Z,26.10
2022-07-30T04:58:23.491Z,22.42
2022-07-30T05:00:51.964Z,26.70
2022-07-30T05:03:18.989Z,20.33
2022-07-30T05:05:45.718Z,24.30
2022-07-30T05:08:12.489Z,24.70
2022-07-30T05:10:38.773Z,25.77
2022-07-30T05:13:10.205Z,28.77
2022-07-30T05:15:37.506Z,22.95
2022-07-30T05:18:04.072Z,28.45
2022-07-30T05:20:30.366Z,24.38
2022-07-30T05:22:57.578Z,33.63
2022-07-30T05:25:23.863Z,31.05
2022-07-30T05:27:51.250Z,34.05
2022-07-30T05:30:17.523Z,34.47
2022-07-30T05:32:44.068Z,33.05
2022-07-30T05:35:12.925Z,33.75
2022-07-30T05:37:39.207Z,38.58
2022-07-30T05:40:05.926Z,39.53
2022-07-30T05:42:32.234Z,32.75
2022-07-30T05:45:00.107Z,33.83
2022-07-30T05:47:26.739Z,36.70
2022-07-30T05:49:53.081Z,37.28
2022-07-30T05:52:19.379Z,30.27
2022-07-30T05:54:45.766Z,32.75
2022-07-30T05:57:12.036Z,30.10
2022-07-30T05:59:38.360Z,27.73
2022-07-30T06:02:06.577Z,33.35
2022-07-30T06:04:32.939Z,27.90
2022-07-30T06:06:59.602Z,32.13
2022-07-30T06:09:36.520Z,31.27
2022-07-30T06:12:03.771Z,30.77
2022-07-30T06:14:30.184Z,35.20
2022-07-30T06:16:56.450Z,32.42
2022-07-30T06:19:22.776Z,35.40
2022-07-30T06:22:05.899Z,33.22
2022-07-30T06:24:33.186Z,30.35
2022-07-30T06:26:59.844Z,34.65
2022-07-30T06:29:26.308Z,26.92
2022-07-30T06:31:52.552Z,32.25
2022-07-30T06:34:18.917Z,28.58
2022-07-30T06:36:45.240Z,33.10
2022-07-30T06:39:11.574Z,28.20
2022-07-30T06:41:38.088Z,30.73
2022-07-30T06:44:04.757Z,36.13
2022-07-30T06:46:31.053Z,31.58
2022-07-30T06:48:57.379Z,28.02
2022-07-30T06:51:23.648Z,29.77
2022-07-30T06:53:49.944Z,28.17
2022-07-30T06:56:16.248Z,28.05
2022-07-30T06:58:42.511Z,26.80
2022-07-30T07:01:11.111Z,27.30
2022-07-30T07:03:39.731Z,26.73
2022-07-30T07:06:06.614Z,29.02
2022-07-30T07:08:35.177Z,28.45
2022-07-30T07:11:01.497Z,22.00
2022-07-30T07:13:27.725Z,23.55
2022-07-30T07:15:54.021Z,21.90
2022-07-30T07:18:20.260Z,24.05
2022-07-30T07:20:46.645Z,22.65
2022-07-30T07:23:12.926Z,23.95
2022-07-30T07:25:40.597Z,23.95
2022-07-30T07:28:12.485Z,26.45
2022-07-30T07:30:39.749Z,25.40
2022-07-30T07:33:06.042Z,21.13
2022-07-30T07:35:33.179Z,19.45
2022-07-30T07:38:15.653Z,21.33
2022-07-30T07:40:41.906Z,21.33
2022-07-30T07:43:08.155Z,16.55
2022-07-30T07:45:34.745Z,20.38
2022-07-30T07:48:01.032Z,19.58
2022-07-30T07:50:27.278Z,16.20
2022-07-30T07:52:53.570Z,19.15
2022-07-30T07:55:22.976Z,14.60
2022-07-30T07:57:50.370Z,16.60
2022-07-30T08:00:19.933Z,20.55
2022-07-30T08:02:47.412Z,18.27
2022-07-30T08:05:13.793Z,20.13
2022-07-30T08:07:40.530Z,17.60
2022-07-30T08:10:07.080Z,17.13
2022-07-30T08:12:33.823Z,21.55
2022-07-30T08:15:00.224Z,17.92
2022-07-30T08:17:26.651Z,18.25
2022-07-30T08:19:52.889Z,20.48
2022-07-30T08:22:19.196Z,19.40
2022-07-30T08:24:45.509Z,17.92
2022-07-30T08:27:11.749Z,18.05
2022-07-30T08:29:38.027Z,16.88
2022-07-30T08:32:04.810Z,18.60
2022-07-30T08:34:31.392Z,20.45
2022-07-30T08:36:57.821Z,15.10
2022-07-30T08:39:24.105Z,15.45
2022-07-30T08:41:50.434Z,18.55
2022-07-30T08:44:18.076Z,20.20
2022-07-30T08:46:47.270Z,16.52
2022-07-30T08:49:14.588Z,14.30
2022-07-30T08:51:41.160Z,18.27
2022-07-30T08:54:07.450Z,17.30
2022-07-30T08:56:34.015Z,17.67
2022-07-30T08:59:01.276Z,18.73
2022-07-30T09:01:27.597Z,18.50
2022-07-30T09:03:54.062Z,17.15
2022-07-30T09:06:20.402Z,14.48
2022-07-30T09:08:46.666Z,18.75
2022-07-30T09:11:12.994Z,19.45
2022-07-30T09:13:41.563Z,15.05
2022-07-30T09:16:08.429Z,10.93
2022-07-30T09:18:39.174Z,14.65
2022-07-30T09:21:21.327Z,12.77
2022-07-30T09:23:58.072Z,16.95
2022-07-30T09:26:24.421Z,10.98
2022-07-30T09:28:50.767Z,12.25
2022-07-30T09:31:17.768Z,12.05
2022-07-30T09:33:44.740Z,12.57
2022-07-30T09:36:18.103Z,15.65
2022-07-30T09:38:51.843Z,12.60
2022-07-30T09:41:40.240Z,14.82
2022-07-30T09:44:06.625Z,10.52
2022-07-30T09:46:43.390Z,12.73
2022-07-30T09:49:19.777Z,16.58
2022-07-30T09:54:51.210Z,14.95
2022-07-30T09:57:32.382Z,9.20
2022-07-30T10:00:23.439Z,10.23
2022-07-30T10:02:51.557Z,9.45
2022-07-30T10:05:21.133Z,14.90
2022-07-30T10:07:55.017Z,12.77
2022-07-30T10:10:25.596Z,17.40
2022-07-30T10:12:53.233Z,11.07
2022-07-30T10:15:24.022Z,11.10
2022-07-30T10:17:50.449Z,11.10
2022-07-30T10:20:17.850Z,10.48
2022-07-30T10:22:45.107Z,11.70
2022-07-30T10:25:17.268Z,12.25
2022-07-30T10:27:45.371Z,10.38
2022-07-30T10:30:13.892Z,9.02
2022-07-30T10:32:40.366Z,7.57
2022-07-30T10:35:09.221Z,6.95
2022-07-30T10:37:37.258Z,13.40
2022-07-30T10:40:06.899Z,13.13
2022-07-30T10:42:51.741Z,11.93
2022-07-30T10:45:23.144Z,12.68
2022-07-30T10:47:50.271Z,12.00
2022-07-30T10:50:17.870Z,12.73
2022-07-30T10:52:51.975Z,7.10
2022-07-30T10:55:36.606Z,11.10
2022-07-30T10:58:04.047Z,9.57
2022-07-30T11:00:37.358Z,10.63
2022-07-30T11:03:14.807Z,10.90
2022-07-30T11:05:45.569Z,9.13
2022-07-30T11:08:32.234Z,9.48
2022-07-30T11:11:19.590Z,6.57
2022-07-30T11:13:51.552Z,8.43
2022-07-30T11:16:20.589Z,11.30
2022-07-30T11:19:56.306Z,9.68
2022-07-30T11:22:21.434Z,9.25
2022-07-30T11:24:49.250Z,4.43
2022-07-30T11:27:36.094Z,6.38
2022-07-30T11:30:03.266Z,5.32
2022-07-30T11:32:33.655Z,4.30
2022-07-30T11:35:14.606Z,6.82
2022-07-30T11:38:01.003Z,5.75
2022-07-30T11:40:34.675Z,8.45
2022-07-30T11:43:16.435Z,6.72
2022-07-30T11:45:42.794Z,7.35
2022-07-30T11:48:10.413Z,6.38
2022-07-30T11:50:36.886Z,8.65
2022-07-30T11:53:15.105Z,8.35
2022-07-30T11:55:42.871Z,6.63
2022-07-30T11:58:26.549Z,4.35
2022-07-30T12:00:53.443Z,6.00
2022-07-30T12:03:21.289Z,5.68
2022-07-30T12:05:51.163Z,4.68
2022-07-30T12:08:31.559Z,5.60
2022-07-30T12:11:02.033Z,4.55
2022-07-30T12:13:45.228Z,10.13
2022-07-30T12:16:13.300Z,5.05
2022-07-30T12:18:39.750Z,6.05
2022-07-30T12:21:08.364Z,5.95
2022-07-30T12:23:34.967Z,4.18
2022-07-30T12:26:02.004Z,4.22
2022-07-30T12:28:32.951Z,7.45
2022-07-30T12:31:00.269Z,4.63
2022-07-30T12:33:26.707Z,6.45
2022-07-30T12:35:53.952Z,4.20
2022-07-30T12:38:20.902Z,6.15
2022-07-30T12:41:13.142Z,4.15
2022-07-30T12:43:53.837Z,5.88
2022-07-30T12:46:21.656Z,4.07
2022-07-30T12:48:50.661Z,4.57
2022-07-30T12:51:17.073Z,5.07
2022-07-30T12:53:43.407Z,6.10
2022-07-30T12:56:10.436Z,7.38
2022-07-30T12:58:37.907Z,4.50
2022-07-30T13:01:04.411Z,4.95
2022-07-30T13:03:39.169Z,5.13
2022-07-30T13:06:12.357Z,4.35
2022-07-30T13:08:44.819Z,4.00
2022-07-30T13:11:11.085Z,5.90
2022-07-30T13:13:37.353Z,6.93
2022-07-30T13:16:04.991Z,5.95
2022-07-30T13:18:32.002Z,4.03
2022-07-30T13:20:58.706Z,4.55
2022-07-30T13:23:25.355Z,8.02
2022-07-30T13:25:51.678Z,4.90
2022-07-30T13:28:18.420Z,4.45
2022-07-30T13:30:44.711Z,4.97
2022-07-30T13:33:11.058Z,7.78
2022-07-30T13:35:37.400Z,3.83
2022-07-30T13:38:06.000Z,9.93
2022-07-30T13:40:32.741Z,6.45
2022-07-30T13:42:59.779Z,4.30
2022-07-30T13:45:26.301Z,4.03
2022-07-30T13:47:52.649Z,2.35
2022-07-30T13:50:19.005Z,6.03
2022-07-30T13:52:45.316Z,2.05
2022-07-30T13:55:11.696Z,4.15
2022-07-30T13:57:37.952Z,4.57
2022-07-30T14:00:06.587Z,2.17
2022-07-30T14:02:34.199Z,5.32
2022-07-30T14:05:00.557Z,3.08
2022-07-30T14:07:26.826Z,6.53
2022-07-30T14:09:54.621Z,2.50
2022-07-30T14:12:21.112Z,2.88
2022-07-30T14:14:47.382Z,3.45
2022-07-30T14:17:13.822Z,3.97
2022-07-30T14:19:40.133Z,2.55
2022-07-30T14:22:06.609Z,8.80
2022-07-30T14:24:33.153Z,5.00
2022-07-30T14:26:59.835Z,5.85
2022-07-30T14:29:27.072Z,4.15
2022-07-30T14:31:53.633Z,5.15
2022-07-30T14:34:19.884Z,8.48
2022-07-30T14:36:46.111Z,5.22
2022-07-30T14:39:12.574Z,2.50
2022-07-30T14:41:38.876Z,3.10
2022-07-30T14:44:05.365Z,6.20
2022-07-30T14:46:31.841Z,6.45
2022-07-30T14:48:58.181Z,4.95
2022-07-30T14:51:26.740Z,4.18
2022-07-30T14:53:54.603Z,4.93
2022-07-30T14:56:22.079Z,5.00
2022-07-30T14:58:48.630Z,4.18
2022-07-30T15:01:16.656Z,10.43
2022-07-30T15:03:44.041Z,3.78
2022-07-30T15:06:12.484Z,2.13
2022-07-30T15:08:38.834Z,4.30
2022-07-30T15:11:06.107Z,4.20
2022-07-30T15:13:34.620Z,3.55
2022-07-30T15:16:02.819Z,3.45
2022-07-30T15:18:29.129Z,7.55
2022-07-30T15:20:56.225Z,4.38
2022-07-30T15:23:22.455Z,3.90
2022-07-30T15:25:48.996Z,4.30
2022-07-30T15:28:15.320Z,4.00
2022-07-30T15:30:41.864Z,2.72
2022-07-30T15:33:08.312Z,4.13
2022-07-30T15:35:34.976Z,3.78
2022-07-30T15:38:01.517Z,4.28
2022-07-30T15:40:27.944Z,6.85
2022-07-30T15:42:54.225Z,5.32
2022-07-30T15:45:20.658Z,1.88
2022-07-30T15:47:47.034Z,4.07
2022-07-30T15:50:13.475Z,7.18
2022-07-30T15:52:39.783Z,3.83
2022-07-30T15:55:06.513Z,2.25
2022-07-30T15:57:32.855Z,5.78
2022-07-30T15:59:59.364Z,5.28
2022-07-30T16:02:25.605Z,3.50
2022-07-30T16:04:52.151Z,2.95
2022-07-30T16:07:19.131Z,6.70
2022-07-30T16:09:45.408Z,6.45
2022-07-30T16:12:11.767Z,4.78
2022-07-30T16:14:38.092Z,4.03
2022-07-30T16:17:04.882Z,5.72
2022-07-30T16:19:31.175Z,6.75
2022-07-30T16:21:57.564Z,4.85
2022-07-30T16:24:23.877Z,5.55
2022-07-30T16:26:50.558Z,4.63
2022-07-30T16:29:17.768Z,3.50
2022-07-30T16:31:44.053Z,3.78
2022-07-30T16:34:10.404Z,2.40
2022-07-30T16:36:36.677Z,3.95
2022-07-30T16:39:03.268Z,3.83
2022-07-30T16:41:29.531Z,3.88
2022-07-30T16:43:55.816Z,6.78
2022-07-30T16:46:22.193Z,4.47
2022-07-30T16:48:50.584Z,4.65
2022-07-30T16:51:17.239Z,3.63
2022-07-30T16:53:43.521Z,3.95
2022-07-30T16:56:09.855Z,7.65
2022-07-30T16:58:36.146Z,6.95
2022-07-30T17:01:02.461Z,2.72
2022-07-30T17:03:28.757Z,5.80
2022-07-30T17:05:55.023Z,4.75
2022-07-30T17:08:24.816Z,3.40
2022-07-30T17:10:51.863Z,2.58
2022-07-30T17:13:18.185Z,2.85
2022-07-30T17:15:44.532Z,4.45
2022-07-30T17:18:13.600Z,3.15
2022-07-30T17:20:39.911Z,3.80
2022-07-30T17:23:07.593Z,3.97
2022-07-30T17:25:33.966Z,3.45
2022-07-30T17:28:00.423Z,3.45
2022-07-30T17:30:27.208Z,2.13
2022-07-30T17:32:53.564Z,4.80
2022-07-30T17:35:20.369Z,5.45
2022-07-30T17:37:46.656Z,7.93
2022-07-30T17:40:29.297Z,4.47
2022-07-30T17:43:03.195Z,5.50
2022-07-30T17:45:30.458Z,6.53
2022-07-30T17:47:57.793Z,5.63
2022-07-30T17:50:24.074Z,5.47
2022-07-30T17:52:50.401Z,5.93
2022-07-30T17:55:16.675Z,4.28
2022-07-30T17:57:42.988Z,3.88
2022-07-30T18:00:09.756Z,3.67
2022-07-30T18:02:36.256Z,4.20
2022-07-30T18:05:02.634Z,2.42
2022-07-30T18:07:28.907Z,5.55
2022-07-30T18:09:55.170Z,8.90
2022-07-30T18:12:21.875Z,3.33
2022-07-30T18:14:48.180Z,6.60
2022-07-30T18:17:14.669Z,6.80
2022-07-30T18:19:41.121Z,6.13
2022-07-30T18:22:07.490Z,3.38
2022-07-30T18:24:33.767Z,6.65
2022-07-30T18:27:06.426Z,3.15
2022-07-30T18:29:32.710Z,3.03
2022-07-30T18:31:58.962Z,3.35
2022-07-30T18:34:25.224Z,5.13
2022-07-30T18:36:53.012Z,4.70
2022-07-30T18:39:19.274Z,6.40
2022-07-30T18:41:45.564Z,5.07
2022-07-30T18:44:11.877Z,9.93
2022-07-30T18:46:38.359Z,9.88
2022-07-30T18:49:26.625Z,4.47
2022-07-30T18:51:51.014Z,7.07
2022-07-30T18:54:18.018Z,4.47
2022-07-30T18:56:44.472Z,3.97
2022-07-30T18:59:10.810Z,3.83
2022-07-30T19:01:38.958Z,7.10
2022-07-30T19:04:05.993Z,6.80
2022-07-30T19:06:32.322Z,7.82
2022-07-30T19:08:59.998Z,6.43
2022-07-30T19:11:26.265Z,8.90
2022-07-30T19:13:52.537Z,3.85
2022-07-30T19:16:20.509Z,5.82
2022-07-30T19:18:46.896Z,5.53
2022-07-30T19:21:14.289Z,4.85
2022-07-30T19:23:40.674Z,4.10
2022-07-30T19:26:06.940Z,9.40
2022-07-30T19:28:34.604Z,6.40
2022-07-30T19:31:00.877Z,6.00
2022-07-30T19:33:27.205Z,5.85
2022-07-30T19:35:53.469Z,5.22
2022-07-30T19:38:21.978Z,4.38
2022-07-30T19:40:49.990Z,3.65
2022-07-30T19:43:16.228Z,4.75
2022-07-30T19:45:47.177Z,3.08
2022-07-30T19:48:14.722Z,6.13
2022-07-30T19:50:41.636Z,3.97
2022-07-30T19:53:08.834Z,4.47
2022-07-30T19:55:37.416Z,2.78
2022-07-30T19:58:04.884Z,5.03
2022-07-30T20:00:42.840Z,5.78
2022-07-30T20:03:16.046Z,4.63
2022-07-30T20:05:57.512Z,3.70
2022-07-30T20:08:26.097Z,3.55
2022-07-30T20:10:52.432Z,5.78
2022-07-30T20:13:18.950Z,2.75
2022-07-30T20:15:46.176Z,3.50
2022-07-30T20:18:12.598Z,9.90
2022-07-30T20:20:38.859Z,4.13
2022-07-30T20:23:07.173Z,6.70
2022-07-30T20:25:37.141Z,3.83
2022-07-30T20:28:03.968Z,4.07
2022-07-30T20:30:30.870Z,5.00
2022-07-30T20:32:57.234Z,4.72
2022-07-30T20:35:26.375Z,8.07
2022-07-30T20:37:54.764Z,5.28
2022-07-30T20:40:22.486Z,6.28
2022-07-30T20:42:49.344Z,4.72
2022-07-30T20:45:15.852Z,7.85
2022-07-30T20:47:43.172Z,8.75
2022-07-30T20:50:14.267Z,6.03
2022-07-30T20:52:41.266Z,3.53
2022-07-30T20:55:15.187Z,4.40
2022-07-30T20:57:57.050Z,7.85
2022-07-30T21:00:28.910Z,3.97
2022-07-30T21:02:55.227Z,8.55
2022-07-30T21:05:21.537Z,5.38
2022-07-30T21:07:47.915Z,10.15
2022-07-30T21:10:19.929Z,5.03
2022-07-30T21:12:52.909Z,4.80
2022-07-30T21:15:23.756Z,5.75
2022-07-30T21:17:50.862Z,3.72
2022-07-30T21:20:17.223Z,7.28
2022-07-30T21:22:54.536Z,4.07
2022-07-30T21:25:21.156Z,7.72
2022-07-30T21:27:49.858Z,9.65
2022-07-30T21:30:16.688Z,8.85
2022-07-30T21:32:42.936Z,12.70
2022-07-30T21:35:09.338Z,12.65
2022-07-30T21:37:38.132Z,14.32
2022-07-30T21:40:09.429Z,10.35
2022-07-30T21:42:36.011Z,11.88
2022-07-30T21:45:14.746Z,11.23
2022-07-30T21:47:41.807Z,13.93
2022-07-30T21:50:16.068Z,15.20
2022-07-30T21:52:43.203Z,11.02
2022-07-30T21:55:09.798Z,11.35
2022-07-30T21:57:39.814Z,13.07
2022-07-30T22:00:21.721Z,6.50
2022-07-30T22:02:52.927Z,9.73
2022-07-30T22:05:20.101Z,5.72
2022-07-30T22:07:49.652Z,5.55
2022-07-30T22:10:16.306Z,4.15
2022-07-30T22:12:47.957Z,8.20
2022-07-30T22:15:15.029Z,8.43
2022-07-30T22:17:58.577Z,6.43
2022-07-30T22:20:27.544Z,11.07
2022-07-30T22:22:54.283Z,8.15
2022-07-30T22:25:21.611Z,4.88
2022-07-30T22:27:56.234Z,7.78
2022-07-30T22:30:25.311Z,5.85
2022-07-30T22:32:54.114Z,4.72
2022-07-30T22:35:33.540Z,7.03
2022-07-30T22:38:00.563Z,3.47
2022-07-30T22:40:26.805Z,8.02
2022-07-30T22:42:53.098Z,5.95
2022-07-30T22:45:48.113Z,5.13
2022-07-30T22:48:09.921Z,5.82
2022-07-30T22:50:36.856Z,7.10
2022-07-30T22:53:56.892Z,4.65
2022-07-30T22:55:52.887Z,5.00
2022-07-30T22:58:22.042Z,5.07
2022-07-30T23:00:52.523Z,5.50
2022-07-30T23:03:19.214Z,6.70
2022-07-30T23:05:56.228Z,4.32
2022-07-30T23:08:30.407Z,7.22
2022-07-30T23:10:57.325Z,7.18
2022-07-30T23:13:23.603Z,8.82
2022-07-30T23:15:49.989Z,5.40
2022-07-30T23:18:16.231Z,10.75
2022-07-30T23:20:42.558Z,6.10
2022-07-30T23:23:08.775Z,5.18
2022-07-30T23:25:38.755Z,7.65
2022-07-30T23:28:05.728Z,6.68
2022-07-30T23:30:34.019Z,6.25
2022-07-30T23:33:00.848Z,5.22
2022-07-30T23:35:27.153Z,10.13
2022-07-30T23:37:53.421Z,4.28
2022-07-30T23:40:19.733Z,6.32
2022-07-30T23:42:46.603Z,3.72
2022-07-30T23:45:12.942Z,5.05
2022-07-30T23:48:00.669Z,7.40
2022-07-30T23:50:26.092Z,7.63
2022-07-30T23:52:52.386Z,6.03
2022-07-30T23:55:18.694Z,6.22
2022-07-30T23:57:44.974Z,6.22
